Alvarado, Texas
Current Conditions -  °F | °C
As of 11:50 AM on Thursday 30 Oct 2014 (Local Time) from KFWS Reporting Station
Few Clouds Few Clouds  
Wind Chill: 72°   Ceiling: Unl
Heat Index: 72°   Visibility: 20mi
Dew Point: 50°   Wind: 8mph
Humidity: 46%   Direction: 190°S
Pressure: 30.17"   Gusts: NA
Location:  32.41°N, 97.21°W
Report Text: KFWS 301650Z 19007KT 20SM FEW070 22/10 A3017
Loading
Personal Weather Stations






























Interactive Weather Map
Tropical Storm Tracking
New forecast layout! Learn more

10-Day Weather Forecast

Advertisements
Track Severe Weather on mobile